Westcliffe, CO (81252)

6:38 AM MDT on August 31, 2015 (GMT -0600)
rosita | | Change Station
CLOSE
Current Station
Personal Weather Station
Location: Westcliffe, CO
Elevation: 9124 ft
Nearby Weather Stations

Elev 9124 ft 38.11 °N, 105.35 °W | Updated 4 seconds ago

Partly Cloudy
Partly Cloudy
56.5 °F
Feels Like 56.5 °F
N
0.0
Wind Variable Wind from ENE
Gusts 0.0 mph

Today
High -- | Low -- °F
--% Chance of Precip.
Yesterday
High -- | Low -- °F
Precip. -- in
6:30 AM 7:32 PM
Waning Gibbous, 95% visible
Pressure 30.29 in
Visibility 10.0 miles
Clouds Scattered Clouds 12000 ft
Dew Point 39 °F
Humidity 52%
Rainfall 0.00 in
Snow Depth Not available.
UV 0 out of 12
Pollen 10.80 out of 12
Air Quality Not available.
Flu Activity Not available.
METAR K04V 311115Z AUTO 34008KT 10SM SCT120 15/06 A3029 RMK AO2 PWINO
Pressure 30.29 in
Visibility 10.0 miles
Clouds Scattered Clouds 12000 ft
Dew Point 39 °F
Humidity 52%
Rainfall 0.00 in
Snow Depth Not available.
UV 0 out of 12
Pollen 10.80 out of 12
Air Quality Not available.
Flu Activity Not available.
METAR K04V 311115Z AUTO 34008KT 10SM SCT120 15/06 A3029 RMK AO2 PWINO

10-Day Weather Forecast

×

Almanac

Astronomy

Aug. 31, 2015 Rise Set
Actual Time
Civil Twilight
Nautical Twilight
Astronomical Twilight
Moon
Length of Visible Light
Length of Day
Tomorrow will be .
, % of the Moon is Illuminated

Today's Extremes

State Highs State Lows

Community

WunderPhotos

Upload Photos

1,851,222 photos uploaded!

WunderBlogs® & News

Nearby

Air Quality

  Air Quality AQ Index Pollutant
Not available.

Snow Depth

Station Depth Elevation

Earthquake Activity

City Distance Mag. Time & Date
Minimum magnitude displayed is 2.5.

Coastal Water Temperatures

Place Temperature

Stations

Nearby Weather Stations

Station Location Temp. Windchill Dew Point Humidity Wind Precip. Elev Updated Type